createdAt,value
2019-03-29T00:02:29.461Z,28.30
2019-03-29T00:04:59.351Z,29.20
2019-03-29T00:07:58.374Z,31.00
2019-03-29T00:10:28.288Z,30.00
2019-03-29T00:13:03.013Z,29.77
2019-03-29T00:15:31.897Z,30.35
2019-03-29T00:18:01.118Z,29.82
2019-03-29T00:20:29.701Z,29.65
2019-03-29T00:22:58.768Z,31.07
2019-03-29T00:25:29.193Z,31.77
2019-03-29T00:27:58.185Z,46.50
2019-03-29T00:30:27.187Z,53.10
2019-03-29T00:33:10.730Z,49.67
2019-03-29T00:35:39.545Z,38.33
2019-03-29T00:38:15.473Z,38.30
2019-03-29T00:40:44.345Z,36.93
2019-03-29T00:43:13.131Z,33.37
2019-03-29T00:45:42.017Z,35.07
2019-03-29T00:48:11.218Z,33.97
2019-03-29T00:51:01.709Z,30.40
2019-03-29T00:53:30.418Z,30.60
2019-03-29T00:56:29.697Z,30.97
2019-03-29T00:58:58.789Z,34.38
2019-03-29T01:01:36.609Z,34.73
2019-03-29T01:04:06.497Z,34.50
2019-03-29T01:06:35.697Z,34.10
2019-03-29T01:09:05.939Z,36.68
2019-03-29T01:11:34.812Z,35.60
2019-03-29T01:17:02.594Z,35.23
2019-03-29T01:20:04.275Z,38.40
2019-03-29T01:22:33.140Z,41.13
2019-03-29T01:25:09.091Z,47.38
2019-03-29T01:27:38.003Z,46.05
2019-03-29T01:30:07.179Z,43.85
2019-03-29T01:35:33.420Z,59.48
2019-03-29T01:38:32.367Z,55.63
2019-03-29T01:41:01.473Z,47.43
2019-03-29T01:44:02.678Z,40.98
2019-03-29T01:46:31.437Z,36.20
2019-03-29T01:49:07.577Z,37.80
2019-03-29T01:51:36.384Z,37.30
2019-03-29T01:54:06.405Z,37.05
2019-03-29T01:56:35.490Z,34.48
2019-03-29T01:59:04.265Z,37.83
2019-03-29T02:01:33.173Z,44.57
2019-03-29T02:04:01.756Z,51.98
2019-03-29T02:06:30.334Z,49.90
2019-03-29T02:09:06.702Z,51.33
2019-03-29T02:11:36.007Z,45.45
2019-03-29T02:14:13.487Z,39.86
2019-03-29T02:16:43.404Z,40.30
2019-03-29T02:19:12.306Z,36.40
2019-03-29T02:21:41.282Z,34.13
2019-03-29T02:24:10.481Z,34.30
2019-03-29T02:26:39.552Z,35.43
2019-03-29T02:29:08.254Z,31.02
2019-03-29T02:31:37.149Z,33.13
2019-03-29T02:34:06.238Z,33.65
2019-03-29T02:36:35.130Z,30.90
2019-03-29T02:39:05.466Z,30.87
2019-03-29T02:41:34.679Z,30.00
2019-03-29T02:44:03.848Z,30.50
2019-03-29T02:47:02.315Z,29.97
2019-03-29T02:49:31.534Z,29.18
2019-03-29T02:52:07.368Z,30.07
2019-03-29T02:54:35.958Z,28.93
2019-03-29T02:57:06.081Z,29.54
2019-03-29T02:59:36.113Z,30.80
2019-03-29T03:02:06.209Z,30.02
2019-03-29T03:04:35.125Z,30.70
2019-03-29T03:07:03.781Z,30.48
2019-03-29T03:09:33.817Z,30.90
2019-03-29T03:12:02.835Z,31.17
2019-03-29T03:14:31.685Z,30.83
2019-03-29T03:17:03.649Z,30.05
2019-03-29T03:19:32.534Z,30.30
2019-03-29T03:22:01.240Z,29.35
2019-03-29T03:24:30.104Z,31.47
2019-03-29T03:26:58.589Z,30.95
2019-03-29T03:29:29.138Z,31.87
2019-03-29T03:31:58.004Z,31.87
2019-03-29T03:34:28.771Z,31.70
2019-03-29T03:37:06.128Z,30.05
2019-03-29T03:39:34.702Z,31.85
2019-03-29T03:42:10.966Z,29.90
2019-03-29T03:44:39.865Z,30.60
2019-03-29T03:47:08.641Z,29.90
2019-03-29T03:50:04.801Z,29.27
2019-03-29T03:52:33.560Z,29.47
2019-03-29T03:58:04.032Z,30.05
2019-03-29T04:01:03.297Z,28.83
2019-03-29T04:03:31.793Z,30.55
2019-03-29T04:06:08.352Z,31.60
2019-03-29T04:11:12.065Z,31.02
2019-03-29T04:14:00.412Z,34.40
2019-03-29T04:16:29.633Z,32.40
2019-03-29T04:19:28.810Z,31.20
2019-03-29T04:21:57.722Z,31.20
2019-03-29T04:24:59.457Z,33.50
2019-03-29T04:27:28.444Z,32.70
2019-03-29T04:30:03.857Z,34.67
2019-03-29T04:32:32.969Z,37.73
2019-03-29T04:35:01.900Z,34.80
2019-03-29T04:37:58.101Z,33.30
2019-03-29T04:40:27.013Z,34.95
2019-03-29T04:43:27.009Z,34.80
2019-03-29T04:45:55.902Z,33.70
2019-03-29T04:48:57.968Z,37.67
2019-03-29T04:51:27.268Z,37.57
2019-03-29T04:54:02.193Z,34.73
2019-03-29T04:56:36.578Z,37.07
2019-03-29T04:59:06.124Z,39.50
2019-03-29T05:02:05.686Z,37.55
2019-03-29T05:04:34.521Z,36.97
2019-03-29T05:10:01.995Z,35.30
2019-03-29T05:13:04.461Z,36.58
2019-03-29T05:15:33.359Z,34.77
2019-03-29T05:18:07.940Z,37.77
2019-03-29T05:20:37.377Z,36.50
2019-03-29T05:23:06.572Z,34.65
2019-03-29T05:28:33.861Z,34.80
2019-03-29T05:34:02.465Z,33.95
2019-03-29T05:37:02.051Z,33.93
2019-03-29T05:39:30.963Z,32.47
2019-03-29T05:42:05.973Z,41.17
2019-03-29T05:44:34.861Z,41.17
2019-03-29T05:47:03.857Z,53.30
2019-03-29T05:49:32.871Z,67.80
2019-03-29T05:52:01.742Z,58.77
2019-03-29T05:54:30.542Z,46.67
2019-03-29T05:56:59.950Z,41.48
2019-03-29T05:59:35.261Z,38.57
2019-03-29T06:02:05.333Z,37.87
2019-03-29T06:05:02.536Z,42.35
2019-03-29T06:07:31.119Z,43.90
2019-03-29T06:10:08.092Z,39.53
2019-03-29T06:12:38.741Z,37.45
2019-03-29T06:15:07.477Z,36.55
2019-03-29T06:23:38.164Z,35.38
2019-03-29T06:26:06.678Z,35.90
2019-03-29T06:29:04.634Z,38.37
2019-03-29T06:31:33.825Z,37.95
2019-03-29T06:34:10.950Z,33.83
2019-03-29T06:36:40.201Z,32.10
2019-03-29T06:39:09.717Z,31.50
2019-03-29T06:42:03.067Z,34.13
2019-03-29T06:44:32.604Z,32.55
2019-03-29T06:50:00.033Z,32.95
2019-03-29T06:52:28.813Z,32.17
2019-03-29T06:54:57.847Z,36.65
2019-03-29T06:57:27.024Z,36.45
2019-03-29T06:59:55.915Z,35.80
2019-03-29T07:02:24.597Z,36.93
2019-03-29T07:04:54.512Z,36.07
2019-03-29T07:07:23.193Z,40.20
2019-03-29T07:09:51.797Z,41.13
2019-03-29T07:12:20.588Z,38.90
2019-03-29T07:14:49.455Z,39.17
2019-03-29T07:17:18.341Z,37.38
2019-03-29T07:19:47.537Z,42.03
2019-03-29T07:22:16.121Z,39.40
2019-03-29T07:24:45.009Z,36.57
2019-03-29T07:27:14.100Z,36.00
2019-03-29T07:29:43.304Z,35.43
2019-03-29T07:32:11.907Z,37.00
2019-03-29T07:34:40.661Z,34.33
2019-03-29T07:37:09.245Z,33.33
2019-03-29T07:39:38.033Z,31.33
2019-03-29T07:42:06.623Z,33.42
2019-03-29T07:44:35.440Z,33.40
2019-03-29T07:47:05.725Z,34.60
2019-03-29T07:49:34.833Z,39.13
2019-03-29T07:52:03.408Z,41.10
2019-03-29T07:54:32.008Z,38.55
2019-03-29T07:57:00.981Z,42.05
2019-03-29T07:59:30.065Z,44.83
2019-03-29T08:01:58.882Z,42.98
2019-03-29T08:04:27.542Z,42.00
2019-03-29T08:06:56.441Z,41.58
2019-03-29T08:09:26.302Z,39.83
2019-03-29T08:11:56.053Z,39.50
2019-03-29T08:14:24.960Z,38.23
2019-03-29T08:16:53.676Z,39.83
2019-03-29T08:19:22.208Z,39.37
2019-03-29T08:21:50.690Z,40.25
2019-03-29T08:24:19.577Z,41.08
2019-03-29T08:26:49.076Z,44.05
2019-03-29T08:29:17.663Z,42.03
2019-03-29T08:31:46.140Z,42.62
2019-03-29T08:34:14.722Z,42.17
2019-03-29T08:36:43.612Z,45.53
2019-03-29T08:39:12.195Z,44.40
2019-03-29T08:41:40.776Z,46.50
2019-03-29T08:44:11.809Z,47.47
2019-03-29T08:46:40.196Z,47.00
2019-03-29T08:49:09.292Z,47.17
2019-03-29T08:51:41.279Z,46.43
2019-03-29T08:54:08.398Z,48.65
2019-03-29T08:56:36.979Z,50.10
2019-03-29T08:59:05.865Z,49.23
2019-03-29T09:01:34.757Z,46.70
2019-03-29T09:04:05.833Z,49.90
2019-03-29T09:06:34.005Z,46.35
2019-03-29T09:09:03.065Z,50.58
2019-03-29T09:11:32.153Z,50.25
2019-03-29T09:14:01.253Z,50.08
2019-03-29T09:16:30.343Z,49.63
2019-03-29T09:18:58.932Z,48.80
2019-03-29T09:21:30.482Z,50.80
2019-03-29T09:23:59.061Z,50.15
2019-03-29T09:26:29.182Z,49.95
2019-03-29T09:28:57.765Z,49.27
2019-03-29T09:31:29.028Z,49.75
2019-03-29T09:33:58.745Z,49.80
2019-03-29T09:36:27.695Z,49.55
2019-03-29T09:38:57.991Z,50.30
2019-03-29T09:41:29.371Z,48.48
2019-03-29T09:43:58.266Z,48.47
2019-03-29T09:46:28.689Z,47.77
2019-03-29T09:48:57.270Z,50.80
2019-03-29T09:51:26.211Z,49.20
2019-03-29T09:53:57.801Z,50.30
2019-03-29T09:56:38.103Z,49.18
2019-03-29T09:58:55.715Z,48.95
2019-03-29T10:01:24.513Z,48.50
2019-03-29T10:03:53.276Z,49.27
2019-03-29T10:06:22.074Z,47.78
2019-03-29T10:08:53.330Z,47.87
2019-03-29T10:11:22.233Z,47.58
2019-03-29T10:13:51.392Z,49.23
2019-03-29T10:16:19.969Z,46.50
2019-03-29T10:18:48.552Z,48.42
2019-03-29T10:21:17.716Z,48.02
2019-03-29T10:23:47.049Z,47.40
2019-03-29T10:26:15.725Z,47.87
2019-03-29T10:28:44.726Z,47.55
2019-03-29T10:31:14.535Z,46.47
2019-03-29T10:33:43.622Z,46.98
2019-03-29T10:36:12.209Z,44.67
2019-03-29T10:38:40.796Z,44.27
2019-03-29T10:41:09.576Z,43.90
2019-03-29T10:43:38.390Z,42.27
2019-03-29T10:46:06.944Z,42.78
2019-03-29T10:48:35.732Z,41.27
2019-03-29T10:51:08.358Z,43.30
2019-03-29T10:53:36.079Z,46.03
2019-03-29T10:56:06.189Z,39.17
2019-03-29T10:58:34.773Z,40.52
2019-03-29T11:01:03.865Z,41.98
2019-03-29T11:03:32.436Z,43.50
2019-03-29T11:06:01.332Z,46.55
2019-03-29T11:08:30.224Z,42.67
2019-03-29T11:10:59.116Z,43.73
2019-03-29T11:13:27.794Z,42.75
2019-03-29T11:15:56.885Z,44.98
2019-03-29T11:18:25.910Z,42.95
2019-03-29T11:20:54.747Z,40.08
2019-03-29T11:23:24.207Z,41.77
2019-03-29T11:25:58.426Z,41.85
2019-03-29T11:28:30.065Z,38.97
2019-03-29T11:30:58.852Z,41.30
2019-03-29T11:33:28.706Z,37.23
2019-03-29T11:35:57.636Z,37.80
2019-03-29T11:38:26.560Z,37.15
2019-03-29T11:40:55.041Z,35.35
2019-03-29T11:43:26.936Z,36.27
2019-03-29T11:45:54.217Z,35.10
2019-03-29T11:48:22.793Z,39.10
2019-03-29T11:50:51.381Z,37.90
2019-03-29T11:53:20.083Z,35.00
2019-03-29T11:55:48.953Z,35.55
2019-03-29T11:58:18.045Z,35.50
2019-03-29T12:00:46.933Z,33.75
2019-03-29T12:03:15.825Z,35.57
2019-03-29T12:05:44.410Z,37.10
2019-03-29T12:08:13.705Z,37.03
2019-03-29T12:10:42.495Z,37.77
2019-03-29T12:13:11.283Z,34.70
2019-03-29T12:15:40.181Z,35.53
2019-03-29T12:18:09.128Z,36.03
2019-03-29T12:20:37.741Z,35.65
2019-03-29T12:23:06.758Z,34.23
2019-03-29T12:25:35.624Z,36.93
2019-03-29T12:28:06.072Z,36.63
2019-03-29T12:30:34.937Z,35.13
2019-03-29T12:33:03.518Z,35.75
2019-03-29T12:35:32.625Z,34.55
2019-03-29T12:38:01.714Z,36.70
2019-03-29T12:40:31.312Z,34.38
2019-03-29T12:43:00.209Z,33.47
2019-03-29T12:45:28.756Z,35.88
2019-03-29T12:47:58.059Z,38.20
2019-03-29T12:50:27.485Z,36.43
2019-03-29T12:52:56.373Z,34.80
2019-03-29T12:55:25.261Z,37.67
2019-03-29T12:57:53.945Z,36.48
2019-03-29T13:00:27.789Z,34.55
2019-03-29T13:02:57.459Z,35.40
2019-03-29T13:05:26.363Z,38.40
2019-03-29T13:07:54.877Z,38.10
2019-03-29T13:10:23.623Z,37.60
2019-03-29T13:12:52.202Z,40.60
2019-03-29T13:15:20.985Z,38.80
2019-03-29T13:17:49.565Z,40.33
2019-03-29T13:20:18.669Z,39.55
2019-03-29T13:22:47.558Z,37.27
2019-03-29T13:25:16.237Z,39.23
2019-03-29T13:27:44.821Z,36.48
2019-03-29T13:30:17.018Z,38.85
2019-03-29T13:32:44.849Z,39.80
2019-03-29T13:35:14.000Z,40.00
2019-03-29T13:37:42.959Z,42.10
2019-03-29T13:40:13.054Z,42.03
2019-03-29T13:42:41.633Z,40.80
2019-03-29T13:45:10.633Z,44.33
2019-03-29T13:47:40.141Z,44.05
2019-03-29T13:50:10.145Z,42.80
2019-03-29T13:52:39.041Z,43.50
2019-03-29T13:55:08.050Z,45.23
2019-03-29T13:57:36.613Z,44.45
2019-03-29T14:00:12.403Z,42.30
2019-03-29T14:02:41.152Z,40.28
2019-03-29T14:05:10.033Z,41.15
2019-03-29T14:07:38.921Z,39.93
2019-03-29T14:10:14.411Z,42.13
2019-03-29T14:12:42.130Z,44.73
2019-03-29T14:15:12.091Z,41.53
2019-03-29T14:17:41.242Z,42.93
2019-03-29T14:20:10.766Z,39.92
2019-03-29T14:22:39.846Z,41.05
2019-03-29T14:25:08.542Z,40.75
2019-03-29T14:27:37.112Z,41.18
2019-03-29T14:30:07.328Z,39.80
2019-03-29T14:32:36.108Z,37.23
2019-03-29T14:35:07.973Z,28.50
2019-03-29T14:37:36.861Z,40.00
2019-03-29T14:40:07.622Z,44.98
2019-03-29T14:42:36.075Z,38.08
2019-03-29T14:45:07.015Z,41.83
2019-03-29T14:47:42.664Z,39.47
2019-03-29T14:50:10.241Z,40.43
2019-03-29T14:52:39.338Z,42.00
2019-03-29T14:55:11.616Z,32.74
2019-03-29T14:57:42.845Z,41.63
2019-03-29T15:00:13.195Z,40.07
2019-03-29T15:02:42.062Z,40.65
2019-03-29T15:05:14.018Z,40.95
2019-03-29T15:07:55.369Z,35.98
2019-03-29T15:10:28.000Z,39.87
2019-03-29T15:13:05.677Z,39.48
2019-03-29T15:15:36.535Z,35.45
2019-03-29T15:18:09.320Z,33.05
2019-03-29T15:20:53.487Z,40.90
2019-03-29T15:23:16.602Z,40.13
2019-03-29T15:25:45.559Z,41.23
2019-03-29T15:28:14.883Z,40.78
2019-03-29T15:30:44.192Z,39.75
2019-03-29T15:33:13.603Z,40.75
2019-03-29T15:35:45.794Z,43.42
2019-03-29T15:38:17.481Z,38.93
2019-03-29T15:40:49.973Z,37.85
2019-03-29T15:43:19.689Z,41.80
2019-03-29T15:45:48.798Z,41.95
2019-03-29T15:48:17.877Z,42.30
2019-03-29T15:50:47.969Z,42.10
2019-03-29T15:53:18.611Z,39.78
2019-03-29T15:55:47.489Z,41.90
2019-03-29T15:58:16.681Z,40.03
2019-03-29T16:00:46.416Z,45.75
2019-03-29T16:03:15.289Z,44.03
2019-03-29T16:05:48.672Z,42.45
2019-03-29T16:08:20.974Z,40.10
2019-03-29T16:10:49.833Z,42.17
2019-03-29T16:13:18.933Z,40.05
2019-03-29T16:15:47.708Z,40.37
2019-03-29T16:18:16.629Z,40.00
2019-03-29T16:20:46.219Z,38.55
2019-03-29T16:23:15.666Z,38.63
2019-03-29T16:25:44.322Z,40.28
2019-03-29T16:28:13.453Z,39.80
2019-03-29T16:30:47.020Z,38.23
2019-03-29T16:33:19.507Z,36.60
2019-03-29T16:35:48.297Z,37.53
2019-03-29T16:38:17.376Z,39.97
2019-03-29T16:40:45.930Z,40.67
2019-03-29T16:43:14.510Z,37.93
2019-03-29T16:45:48.027Z,40.48
2019-03-29T16:48:16.490Z,36.10
2019-03-29T16:50:45.378Z,41.90
2019-03-29T16:53:14.637Z,41.18
2019-03-29T16:55:43.876Z,36.45
2019-03-29T16:58:15.847Z,38.70
2019-03-29T17:00:45.347Z,39.80
2019-03-29T17:03:14.333Z,40.00
2019-03-29T17:05:42.911Z,37.53
2019-03-29T17:08:11.902Z,37.23
2019-03-29T17:10:40.810Z,39.78
2019-03-29T17:13:09.583Z,39.45
2019-03-29T17:15:38.674Z,40.35
2019-03-29T17:18:07.583Z,40.47
2019-03-29T17:20:36.761Z,39.97
2019-03-29T17:23:06.371Z,41.37
2019-03-29T17:25:34.951Z,41.45
2019-03-29T17:28:03.779Z,39.05
2019-03-29T17:30:41.531Z,39.13
2019-03-29T17:33:10.319Z,37.47
2019-03-29T17:35:39.208Z,38.23
2019-03-29T17:38:08.099Z,38.37
2019-03-29T17:40:37.195Z,39.63
2019-03-29T17:43:07.583Z,40.73
2019-03-29T17:45:37.934Z,42.17
2019-03-29T17:48:07.091Z,40.58
2019-03-29T17:50:35.615Z,40.80
2019-03-29T17:53:06.790Z,42.68
2019-03-29T17:55:35.745Z,41.42
2019-03-29T17:58:05.678Z,44.50
2019-03-29T18:00:34.542Z,43.70
2019-03-29T18:03:03.133Z,45.03
2019-03-29T18:05:32.022Z,45.10
2019-03-29T18:08:25.610Z,44.98
2019-03-29T18:10:55.801Z,43.75
2019-03-29T18:13:24.390Z,43.00
2019-03-29T18:15:53.279Z,43.03
2019-03-29T18:18:22.107Z,42.20
2019-03-29T18:20:50.883Z,41.90
2019-03-29T18:23:20.174Z,44.33
2019-03-29T18:25:48.739Z,44.15
2019-03-29T18:28:17.441Z,44.67
2019-03-29T18:30:46.619Z,45.50
2019-03-29T18:33:15.734Z,45.03
2019-03-29T18:35:44.615Z,45.73
2019-03-29T18:38:13.486Z,45.60
2019-03-29T18:40:42.375Z,44.80
2019-03-29T18:43:11.159Z,47.25
2019-03-29T18:45:41.714Z,46.30
2019-03-29T18:48:12.021Z,44.80
2019-03-29T18:50:46.373Z,47.60
2019-03-29T18:53:33.652Z,47.10
2019-03-29T18:56:02.236Z,45.30
2019-03-29T18:58:31.569Z,46.70
2019-03-29T19:01:00.427Z,49.20
2019-03-29T19:03:29.418Z,48.33
2019-03-29T19:05:58.303Z,49.73
2019-03-29T19:08:27.824Z,49.07
2019-03-29T19:10:57.518Z,50.78
2019-03-29T19:13:26.531Z,52.57
2019-03-29T19:15:55.316Z,51.00
2019-03-29T19:18:24.102Z,49.93
2019-03-29T19:20:58.193Z,55.73
2019-03-29T19:23:28.737Z,59.93
2019-03-29T19:25:59.141Z,59.67
2019-03-29T19:28:28.469Z,56.18
2019-03-29T19:31:15.558Z,57.70
2019-03-29T19:33:44.446Z,57.10
2019-03-29T19:36:19.391Z,57.50
2019-03-29T19:38:48.528Z,56.43
2019-03-29T19:41:17.385Z,56.63
2019-03-29T19:43:45.950Z,58.17
2019-03-29T19:46:15.159Z,58.35
2019-03-29T19:48:43.740Z,60.30
2019-03-29T19:51:37.419Z,60.52
2019-03-29T19:54:07.954Z,59.05
2019-03-29T19:57:24.674Z,62.43
2019-03-29T19:59:13.400Z,63.48
2019-03-29T20:01:42.172Z,61.30
2019-03-29T20:04:11.069Z,66.70
2019-03-29T20:06:39.644Z,65.15
2019-03-29T20:09:09.070Z,62.38
2019-03-29T20:11:38.310Z,65.40
2019-03-29T20:17:06.975Z,64.28
2019-03-29T20:20:04.472Z,64.63
2019-03-29T20:22:33.521Z,64.53
2019-03-29T20:28:01.799Z,67.58
2019-03-29T20:30:39.686Z,74.90
2019-03-29T20:33:08.579Z,77.47
2019-03-29T20:35:37.162Z,76.50
2019-03-29T20:38:06.042Z,78.55
2019-03-29T20:40:35.034Z,76.87
2019-03-29T20:43:03.922Z,70.90
2019-03-29T20:45:57.004Z,71.65
2019-03-29T20:48:26.199Z,67.50
2019-03-29T20:51:29.189Z,62.60
2019-03-29T20:53:57.752Z,63.02
2019-03-29T20:56:33.806Z,63.60
2019-03-29T20:59:03.153Z,67.50
2019-03-29T21:01:32.306Z,74.95
2019-03-29T21:04:01.494Z,76.12
2019-03-29T21:06:30.083Z,77.45
2019-03-29T21:08:58.973Z,78.20
2019-03-29T21:11:46.093Z,74.25
2019-03-29T21:14:15.075Z,71.28
2019-03-29T21:19:42.689Z,74.13
2019-03-29T21:22:18.119Z,74.17
2019-03-29T21:24:46.778Z,70.60
2019-03-29T21:27:15.874Z,68.30
2019-03-29T21:29:44.460Z,70.55
2019-03-29T21:32:13.145Z,67.13
2019-03-29T21:34:42.459Z,66.30
2019-03-29T21:37:11.534Z,67.57
2019-03-29T21:39:40.177Z,62.48
2019-03-29T21:42:29.898Z,61.98
2019-03-29T21:44:59.097Z,57.83
2019-03-29T21:47:33.914Z,61.48
2019-03-29T21:50:04.242Z,66.62
2019-03-29T21:52:32.830Z,65.17
2019-03-29T21:55:01.837Z,63.90
2019-03-29T21:57:30.507Z,67.40
2019-03-29T21:59:59.617Z,70.55
2019-03-29T22:02:31.150Z,69.62
2019-03-29T22:04:59.727Z,67.12
2019-03-29T22:07:30.977Z,68.52
2019-03-29T22:09:59.554Z,67.55
2019-03-29T22:12:34.174Z,63.95
2019-03-29T22:15:03.586Z,65.33
2019-03-29T22:17:32.162Z,65.87
2019-03-29T22:20:01.047Z,66.83
2019-03-29T22:22:31.270Z,64.92
2019-03-29T22:24:59.869Z,66.12
2019-03-29T22:27:59.277Z,57.20
2019-03-29T22:30:32.057Z,62.67
2019-03-29T22:33:28.140Z,63.63
2019-03-29T22:35:56.747Z,60.00
2019-03-29T22:38:34.743Z,63.83
2019-03-29T22:41:04.590Z,58.63
2019-03-29T22:43:59.646Z,62.88
2019-03-29T22:46:29.085Z,70.92
2019-03-29T22:51:56.334Z,65.90
2019-03-29T22:57:25.042Z,63.57
2019-03-29T23:02:47.182Z,67.00
2019-03-29T23:05:15.775Z,73.63
2019-03-29T23:10:33.859Z,74.27
2019-03-29T23:16:02.153Z,73.67
2019-03-29T23:21:31.059Z,75.67
2019-03-29T23:26:41.914Z,75.10
2019-03-29T23:29:10.701Z,72.80
2019-03-29T23:34:36.795Z,74.25
2019-03-29T23:37:34.507Z,77.74
2019-03-29T23:40:03.669Z,75.85
2019-03-29T23:43:03.724Z,75.83
2019-03-29T23:45:32.628Z,65.67
2019-03-29T23:51:01.207Z,72.70
2019-03-29T23:53:38.703Z,69.80
2019-03-29T23:56:08.410Z,63.02
2019-03-29T23:58:37.299Z,58.47
